createdAt,value
2022-08-16T00:01:34.265Z,25.00
2022-08-16T00:04:10.701Z,25.19
2022-08-16T00:06:45.135Z,25.52
2022-08-16T00:09:18.634Z,25.08
2022-08-16T00:11:52.556Z,24.57
2022-08-16T00:17:24.800Z,25.20
2022-08-16T00:19:55.063Z,25.20
2022-08-16T00:22:29.186Z,24.73
2022-08-16T00:25:02.052Z,25.31
2022-08-16T00:27:33.379Z,25.59
2022-08-16T00:30:19.856Z,25.51
2022-08-16T00:33:02.619Z,24.77
2022-08-16T00:35:35.442Z,24.48
2022-08-16T00:38:41.263Z,24.64
2022-08-16T00:41:05.974Z,24.44
2022-08-16T00:43:42.520Z,24.84
2022-08-16T00:46:32.975Z,25.00
2022-08-16T00:49:17.483Z,25.34
2022-08-16T00:51:54.936Z,24.81
2022-08-16T00:54:24.850Z,25.05
2022-08-16T00:57:05.923Z,24.92
2022-08-16T00:59:37.177Z,25.10
2022-08-16T01:02:36.285Z,25.32
2022-08-16T01:05:10.532Z,25.14
2022-08-16T01:07:51.102Z,25.40
2022-08-16T01:10:32.249Z,25.28
2022-08-16T01:18:58.111Z,25.63
2022-08-16T01:21:33.662Z,25.67
2022-08-16T01:24:52.091Z,25.31
2022-08-16T01:27:15.658Z,25.48
2022-08-16T01:29:58.053Z,25.59
2022-08-16T01:32:36.095Z,25.31
2022-08-16T01:35:17.637Z,25.47
2022-08-16T01:38:04.900Z,25.15
2022-08-16T01:40:36.491Z,25.30
2022-08-16T01:43:13.755Z,25.03
2022-08-16T01:45:43.560Z,25.27
2022-08-16T01:48:20.660Z,25.11
2022-08-16T01:51:16.375Z,25.11
2022-08-16T01:53:55.238Z,25.39
2022-08-16T01:56:35.946Z,25.62
2022-08-16T01:59:08.050Z,25.51
2022-08-16T02:01:56.281Z,25.42
2022-08-16T02:04:49.090Z,25.37
2022-08-16T02:07:39.034Z,25.30
2022-08-16T02:10:22.316Z,25.52
2022-08-16T02:13:00.649Z,25.61
2022-08-16T02:18:34.452Z,25.77
2022-08-16T02:21:05.745Z,25.59
2022-08-16T02:23:40.711Z,25.63
2022-08-16T02:26:16.964Z,25.72
2022-08-16T02:28:54.339Z,25.77
2022-08-16T02:31:22.720Z,25.53
2022-08-16T02:34:18.470Z,25.38
2022-08-16T02:36:50.790Z,25.30
2022-08-16T02:39:23.859Z,25.29
2022-08-16T02:41:57.319Z,25.03
2022-08-16T02:44:38.106Z,24.95
2022-08-16T02:47:10.940Z,24.80
2022-08-16T02:50:54.984Z,25.00
2022-08-16T02:52:49.120Z,25.18
2022-08-16T02:55:40.699Z,24.84
2022-08-16T02:58:26.476Z,24.54
2022-08-16T03:01:01.683Z,24.62
2022-08-16T03:04:41.132Z,24.69
2022-08-16T03:06:42.373Z,24.71
2022-08-16T03:09:37.980Z,24.73
2022-08-16T03:12:11.520Z,24.69
2022-08-16T03:17:53.905Z,24.83
2022-08-16T03:20:31.865Z,24.95
2022-08-16T03:23:04.691Z,25.11
2022-08-16T03:25:44.083Z,24.93
2022-08-16T03:28:17.951Z,24.63
2022-08-16T03:30:51.839Z,24.79
2022-08-16T03:33:29.822Z,24.81
2022-08-16T03:36:31.198Z,24.98
2022-08-16T03:39:15.171Z,24.86
2022-08-16T03:41:59.635Z,24.83
2022-08-16T03:44:44.184Z,24.82
2022-08-16T03:47:19.771Z,24.94
2022-08-16T03:49:56.509Z,25.04
2022-08-16T03:52:31.733Z,25.06
2022-08-16T03:55:05.222Z,24.91
2022-08-16T03:57:44.336Z,24.99
2022-08-16T04:00:35.683Z,25.02
2022-08-16T04:03:18.636Z,25.06
2022-08-16T04:05:51.300Z,24.85
2022-08-16T04:08:27.127Z,24.81
2022-08-16T04:11:04.146Z,24.85
2022-08-16T04:14:08.907Z,24.33
2022-08-16T04:16:51.561Z,24.10
2022-08-16T04:19:36.118Z,24.19
2022-08-16T04:22:08.878Z,24.49
2022-08-16T04:24:54.174Z,24.59
2022-08-16T04:27:31.603Z,24.60
2022-08-16T04:30:12.623Z,24.48
2022-08-16T04:33:13.012Z,24.69
2022-08-16T04:35:49.720Z,24.40
2022-08-16T04:38:20.814Z,24.56
2022-08-16T04:40:57.837Z,24.77
2022-08-16T04:43:31.508Z,24.52
2022-08-16T04:46:03.358Z,24.47
2022-08-16T04:48:44.395Z,24.35
2022-08-16T04:51:15.140Z,24.20
2022-08-16T04:53:49.799Z,23.87
2022-08-16T04:56:20.451Z,24.27
2022-08-16T04:58:57.833Z,24.32
2022-08-16T05:01:57.949Z,24.49
2022-08-16T05:04:23.877Z,24.48
2022-08-16T05:07:00.308Z,24.52
2022-08-16T05:09:50.958Z,24.17
2022-08-16T05:12:22.258Z,24.37
2022-08-16T05:18:03.537Z,24.47
2022-08-16T05:20:57.009Z,24.77
2022-08-16T05:23:31.923Z,24.56
2022-08-16T05:26:02.682Z,24.85
2022-08-16T05:28:39.003Z,24.90
2022-08-16T05:31:13.651Z,24.30
2022-08-16T05:33:43.103Z,24.46
2022-08-16T05:36:20.883Z,24.70
2022-08-16T05:38:57.996Z,24.43
2022-08-16T05:41:28.707Z,24.59
2022-08-16T05:44:05.163Z,24.81
2022-08-16T05:46:48.728Z,24.90
2022-08-16T05:49:23.377Z,24.81
2022-08-16T05:52:00.281Z,24.70
2022-08-16T05:54:33.251Z,24.40
2022-08-16T05:57:07.060Z,24.17
2022-08-16T05:59:41.274Z,24.36
2022-08-16T06:02:12.073Z,24.60
2022-08-16T06:04:45.145Z,24.43
2022-08-16T06:07:26.428Z,24.45
2022-08-16T06:10:31.900Z,24.56
2022-08-16T06:16:18.194Z,24.11
2022-08-16T06:18:51.860Z,24.28
2022-08-16T06:21:22.617Z,24.40
2022-08-16T06:24:01.786Z,24.52
2022-08-16T06:26:57.762Z,24.68
2022-08-16T06:29:30.085Z,24.85
2022-08-16T06:31:58.409Z,24.79
2022-08-16T06:34:55.009Z,24.91
2022-08-16T06:37:19.663Z,24.43
2022-08-16T06:39:50.058Z,24.59
2022-08-16T06:42:47.952Z,24.97
2022-08-16T06:45:43.731Z,25.10
2022-08-16T06:48:32.646Z,25.05
2022-08-16T06:51:03.635Z,25.33
2022-08-16T06:53:35.379Z,25.37
2022-08-16T06:56:14.676Z,25.42
2022-08-16T06:59:08.971Z,25.36
2022-08-16T07:01:53.580Z,25.23
2022-08-16T07:04:31.814Z,25.19
2022-08-16T07:07:09.886Z,25.30
2022-08-16T07:09:42.526Z,25.13
2022-08-16T07:12:15.440Z,25.29
2022-08-16T07:14:50.867Z,25.52
2022-08-16T07:17:21.765Z,25.53
2022-08-16T07:20:29.200Z,25.27
2022-08-16T07:22:59.048Z,25.08
2022-08-16T07:25:40.590Z,25.12
2022-08-16T07:28:20.481Z,25.47
2022-08-16T07:30:50.180Z,25.33
2022-08-16T07:33:53.365Z,24.95
2022-08-16T07:36:31.142Z,25.39
2022-08-16T07:39:02.684Z,25.38
2022-08-16T07:41:36.418Z,25.46
2022-08-16T07:44:16.215Z,25.51
2022-08-16T07:46:45.464Z,25.66
2022-08-16T07:49:19.626Z,26.08
2022-08-16T07:51:47.839Z,26.13
2022-08-16T07:54:21.215Z,25.97
2022-08-16T07:57:00.125Z,26.15
2022-08-16T07:59:42.970Z,26.32
2022-08-16T08:02:20.428Z,26.06
2022-08-16T08:04:57.735Z,25.56
2022-08-16T08:07:29.542Z,25.31
2022-08-16T08:10:04.655Z,25.86
2022-08-16T08:12:36.633Z,25.93
2022-08-16T08:18:30.068Z,26.12
2022-08-16T08:20:59.283Z,25.86
2022-08-16T08:23:29.689Z,25.96
2022-08-16T08:25:58.681Z,26.29
2022-08-16T08:28:29.473Z,26.78
2022-08-16T08:31:03.225Z,26.49
2022-08-16T08:33:47.127Z,25.99
2022-08-16T08:36:33.033Z,26.60
2022-08-16T08:39:13.011Z,27.02
2022-08-16T08:41:42.940Z,27.08
2022-08-16T08:44:29.228Z,27.29
2022-08-16T08:47:03.294Z,27.14
2022-08-16T08:49:46.293Z,26.95
2022-08-16T08:52:34.459Z,26.62
2022-08-16T08:55:11.470Z,26.44
2022-08-16T08:57:43.568Z,26.68
2022-08-16T09:00:51.328Z,26.66
2022-08-16T09:03:24.458Z,27.06
2022-08-16T09:06:01.278Z,26.74
2022-08-16T09:08:32.425Z,27.08
2022-08-16T09:11:10.237Z,27.00
2022-08-16T09:13:54.148Z,26.80
2022-08-16T09:17:01.065Z,26.80
2022-08-16T09:19:10.128Z,26.85
2022-08-16T09:21:37.992Z,27.02
2022-08-16T09:24:10.036Z,27.30
2022-08-16T09:26:45.698Z,27.20
2022-08-16T09:29:24.095Z,27.46
2022-08-16T09:32:07.925Z,27.85
2022-08-16T09:34:39.044Z,27.79
2022-08-16T09:37:17.944Z,27.98
2022-08-16T09:39:50.534Z,27.45
2022-08-16T09:42:24.168Z,27.38
2022-08-16T09:45:10.685Z,27.61
2022-08-16T09:47:56.412Z,27.33
2022-08-16T09:50:36.861Z,27.39
2022-08-16T09:53:15.518Z,27.57
2022-08-16T09:55:49.599Z,27.95
2022-08-16T09:58:41.654Z,27.74
2022-08-16T10:01:11.269Z,27.35
2022-08-16T10:04:01.159Z,27.70
2022-08-16T10:06:33.480Z,27.69
2022-08-16T10:09:08.238Z,27.63
2022-08-16T10:12:11.301Z,28.34
2022-08-16T10:18:01.052Z,28.80
2022-08-16T10:20:35.045Z,27.93
2022-08-16T10:23:08.003Z,28.19
2022-08-16T10:27:16.381Z,28.52
2022-08-16T10:28:31.868Z,28.23
2022-08-16T10:31:03.520Z,28.03
2022-08-16T10:33:34.200Z,28.35
2022-08-16T10:36:04.415Z,28.19
2022-08-16T10:38:36.600Z,28.37
2022-08-16T10:41:08.283Z,28.70
2022-08-16T10:43:38.321Z,28.97
2022-08-16T10:46:39.860Z,29.46
2022-08-16T10:49:01.103Z,28.90
2022-08-16T10:51:34.218Z,28.81
2022-08-16T10:54:28.299Z,29.28
2022-08-16T10:56:59.993Z,29.89
2022-08-16T10:59:38.326Z,30.13
2022-08-16T11:02:58.197Z,29.87
2022-08-16T11:05:13.904Z,29.40
2022-08-16T11:07:52.483Z,30.01
2022-08-16T11:11:05.516Z,30.16
2022-08-16T11:22:50.956Z,32.31
2022-08-16T11:28:08.509Z,32.33
2022-08-16T11:35:43.431Z,34.78
2022-08-16T11:42:37.958Z,35.86
2022-08-16T11:45:08.424Z,36.06
2022-08-16T11:47:39.603Z,36.81
2022-08-16T11:54:41.944Z,36.05
2022-08-16T11:57:15.371Z,35.10
2022-08-16T11:59:43.340Z,36.83
2022-08-16T12:10:16.308Z,34.16
2022-08-16T12:12:44.326Z,35.67
2022-08-16T15:17:41.049Z,30.39
2022-08-16T15:20:13.636Z,30.44
2022-08-16T15:22:48.953Z,30.53
2022-08-16T15:25:22.785Z,30.38
2022-08-16T15:28:31.735Z,30.60
2022-08-16T15:31:06.781Z,30.69
2022-08-16T15:33:42.634Z,30.67
2022-08-16T15:36:17.717Z,30.63
2022-08-16T15:38:56.760Z,30.44
2022-08-16T15:41:34.399Z,30.28
2022-08-16T15:44:10.373Z,30.31
2022-08-16T15:46:55.337Z,30.56
2022-08-16T15:49:55.613Z,30.49
2022-08-16T15:52:30.473Z,30.62
2022-08-16T15:55:24.119Z,30.71
2022-08-16T15:58:34.914Z,30.50
2022-08-16T16:00:55.433Z,30.55
2022-08-16T16:03:29.250Z,30.61
2022-08-16T16:06:05.391Z,30.67
2022-08-16T16:08:59.548Z,30.55
2022-08-16T16:11:31.096Z,30.60
2022-08-16T16:27:09.195Z,30.46
2022-08-16T16:29:40.569Z,30.37
2022-08-16T16:32:10.146Z,30.48
2022-08-16T16:34:38.846Z,30.50
2022-08-16T16:37:10.387Z,30.51
2022-08-16T16:39:42.423Z,30.53
2022-08-16T16:42:29.720Z,30.46
2022-08-16T16:45:03.770Z,30.42
2022-08-16T16:47:48.314Z,30.48
2022-08-16T16:50:16.854Z,30.44
2022-08-16T16:52:48.368Z,30.40
2022-08-16T16:55:19.224Z,30.38
2022-08-16T16:58:06.442Z,30.30
2022-08-16T17:00:51.755Z,30.29
2022-08-16T17:03:27.027Z,30.23
2022-08-16T17:06:03.185Z,30.15
2022-08-16T17:08:42.136Z,30.19
2022-08-16T17:11:12.470Z,30.11
2022-08-16T17:13:44.008Z,30.09
2022-08-16T17:19:22.074Z,30.24
2022-08-16T17:21:51.907Z,30.24
2022-08-16T17:24:31.271Z,30.13
2022-08-16T17:27:08.981Z,30.03
2022-08-16T17:29:45.846Z,30.14
2022-08-16T17:32:47.912Z,30.05
2022-08-16T17:35:33.619Z,30.06
2022-08-16T17:38:06.119Z,30.01
2022-08-16T17:41:24.158Z,30.05
2022-08-16T17:47:52.245Z,29.91
2022-08-16T17:50:22.397Z,29.97
2022-08-16T17:52:53.435Z,29.90
2022-08-16T17:58:44.709Z,29.78
2022-08-16T18:01:12.782Z,29.76
2022-08-16T18:04:07.603Z,29.70
2022-08-16T18:15:42.829Z,29.62
2022-08-16T18:18:11.136Z,29.68
2022-08-16T18:29:07.617Z,29.63
2022-08-16T18:31:36.242Z,29.44
2022-08-16T18:34:09.152Z,29.39
2022-08-16T20:38:13.775Z,27.72
2022-08-16T20:40:43.689Z,27.67
2022-08-16T20:43:15.027Z,27.50
2022-08-16T20:45:46.784Z,27.51
2022-08-16T20:48:19.679Z,27.49
2022-08-16T20:50:50.741Z,27.50
2022-08-16T20:53:44.567Z,27.54
2022-08-16T20:56:12.337Z,27.71
2022-08-16T20:58:40.015Z,27.62
2022-08-16T21:01:12.479Z,27.46
2022-08-16T21:03:45.930Z,27.14
2022-08-16T21:06:13.715Z,27.11
2022-08-16T21:08:52.509Z,27.36
2022-08-16T21:11:21.828Z,27.32
2022-08-16T21:14:00.084Z,27.36
2022-08-16T21:38:11.361Z,27.31
2022-08-16T21:41:08.563Z,27.44
2022-08-16T21:43:36.793Z,27.43
2022-08-16T21:46:07.726Z,27.60
2022-08-16T21:48:40.543Z,27.92
2022-08-16T21:51:12.844Z,28.10
2022-08-16T21:53:43.428Z,28.17
2022-08-16T21:56:16.574Z,28.23
2022-08-16T21:58:52.670Z,28.02
2022-08-16T22:02:06.889Z,27.55
2022-08-16T22:05:01.999Z,27.52
2022-08-16T22:07:35.401Z,27.25
2022-08-16T22:11:04.148Z,27.53
2022-08-16T22:12:59.874Z,27.50
2022-08-16T22:15:35.802Z,27.32
2022-08-16T22:18:03.771Z,27.27
2022-08-16T22:20:34.498Z,27.12
2022-08-16T22:23:06.292Z,26.99
2022-08-16T22:25:36.944Z,27.44
2022-08-16T22:28:07.882Z,27.55
2022-08-16T22:30:38.193Z,27.59
2022-08-16T22:33:16.908Z,27.62
2022-08-16T22:35:49.824Z,27.55
2022-08-16T22:38:54.679Z,27.29
2022-08-16T22:41:13.006Z,27.60
2022-08-16T22:43:47.774Z,27.75
2022-08-16T22:46:19.724Z,27.80
2022-08-16T22:48:53.142Z,27.92
2022-08-16T22:51:24.628Z,27.98
2022-08-16T22:53:55.260Z,27.83
2022-08-16T22:56:25.983Z,27.96
2022-08-16T22:58:56.269Z,27.89
2022-08-16T23:01:25.431Z,27.72
2022-08-16T23:04:01.044Z,27.79
2022-08-16T23:06:28.826Z,27.79
2022-08-16T23:08:57.952Z,27.74
2022-08-16T23:11:25.851Z,27.80
2022-08-16T23:13:54.726Z,27.77
2022-08-16T23:16:24.887Z,27.85
2022-08-16T23:18:58.819Z,27.95
2022-08-16T23:21:31.995Z,27.97
2022-08-16T23:24:02.282Z,27.88
2022-08-16T23:26:44.720Z,27.58
2022-08-16T23:29:24.579Z,27.62
2022-08-16T23:31:59.791Z,27.58
2022-08-16T23:34:28.401Z,27.15
2022-08-16T23:36:56.720Z,27.34
2022-08-16T23:39:26.727Z,26.85
2022-08-16T23:42:02.250Z,26.89
2022-08-16T23:44:45.547Z,26.72
2022-08-16T23:47:30.215Z,26.82
2022-08-16T23:50:04.247Z,26.87
2022-08-16T23:52:42.337Z,26.84
2022-08-16T23:55:22.900Z,26.82
2022-08-16T23:57:53.762Z,27.01
